Startpagina
METAR-TAF:

METAR-TAF

Vliegvelden :

Luchthaven Bamako

Bamako, Mali

breedte: 12-32N, lengte: 007-57W, hoogte: 380 m

Actueel weer

Dit bericht is 37 minuten geleden gemaakt, om 11:30 UTC
Wind 3 kt uit variabele richting
Temperatuur 36°C
Vochtigheid 18%
Druk 1014 hPa
Zicht 10 km of meer
geen wolken onder 1500 m en geen cumulonimbus

METAR: GABS 161130Z VRB03KT CAVOK 36/08 Q1014 NOSIG

Tijdstip: 12:07 (12:07 UTC)

Verwachting

Dit bericht is 37 minuten geleden gemaakt, om 11:30 UTC
Verwachting geldig van 16 om 12 UTC tot 17 om 18 UTC
Wind 6 kt uit het noordnoordoosten
Zicht 10 km of meer
geen wolken onder 1500 m en geen cumulonimbus
Kans 40% :
Tijdelijke
van 17 om 07 UTC tot 17 om 12 UTC
Zicht: 4000 m
Heiigheid

TAF: GABS 161130Z 1612/1718 02006KT CAVOK PROB40 TEMPO 1707/1712 4000 HZ

Waarnemingen en weersverwachtingen van meer dan 4000 vliegvelden (METAR en TAF).

De beschikbare stations zijn de gele en rode punten op de kaart.

Ga met uw muis naar het station om de naam te zien.

Klik dan om waarnemingen en weersverwachtingen te zien.

kaart wijzigen: klik op de groene knoppen met een zwart kruis om in te zoomen, op de groene knop met een streepje om uit te zoomen of op de groene pijlen voor aangrenzende kaarten.


METAR-TAF: